Time;durP1;ratioP1;P1;durP2;ratioP2;P2;SDS_P1;SDS_P2;PMS_P1;PMS_P2;Temp;Humidity;BMP_temperature;BMP_pressure;BME280_temperature;BME280_humidity;BME280_pressure;Samples;Min_cycle;Max_cycle;Signal;HPM_P1;HPM_P2
2021/10/09 00:00:58;;;;;;;18.48;5.65;;;;;;;5.80;51.46;101376.61;1631554;87;21034;-72
2021/10/09 00:03:28;;;;;;;22.77;6.15;;;;;;;5.78;51.47;101382.88;1640145;86;21106;-72
2021/10/09 00:06:00;;;;;;;15.70;5.70;;;;;;;5.76;51.51;101378.19;1640001;86;21090;-72
2021/10/09 00:08:32;;;;;;;17.05;6.28;;;;;;;5.73;51.56;101378.67;1643171;86;21067;-72
2021/10/09 00:11:07;;;;;;;14.28;5.58;;;;;;;5.71;51.68;101378.08;1612287;86;21541;-71
2021/10/09 00:13:35;;;;;;;13.48;6.22;;;;;;;5.68;51.58;101381.30;1583901;88;21080;-72
2021/10/09 00:16:03;;;;;;;18.00;6.15;;;;;;;5.66;51.64;101373.86;1602556;88;21098;-73
2021/10/09 00:18:33;;;;;;;14.43;6.00;;;;;;;5.63;51.80;101375.72;1609114;87;21215;-71
2021/10/09 00:21:01;;;;;;;13.40;6.30;;;;;;;5.60;51.73;101365.55;1610886;87;21018;-72
2021/10/09 00:23:31;;;;;;;14.63;5.50;;;;;;;5.60;51.76;101365.55;1604833;88;21043;-72
2021/10/09 00:26:02;;;;;;;16.00;6.80;;;;;;;5.59;51.81;101369.37;1632751;87;21029;-73
2021/10/09 00:28:31;;;;;;;16.73;5.87;;;;;;;5.57;52.04;101366.03;1620868;87;21035;-73
2021/10/09 00:31:05;;;;;;;16.37;6.12;;;;;;;5.55;52.24;101366.80;1614050;86;21054;-72
2021/10/09 00:33:40;;;;;;;15.48;6.22;;;;;;;5.53;52.20;101368.95;1639203;86;21075;-72
2021/10/09 00:36:07;;;;;;;15.72;6.45;;;;;;;5.50;52.40;101357.12;1616529;87;21025;-72
2021/10/09 00:38:40;;;;;;;14.73;6.85;;;;;;;5.46;52.30;101358.66;1628869;87;21051;-72
2021/10/09 00:41:10;;;;;;;19.15;6.30;;;;;;;5.44;52.35;101356.17;1619381;87;21024;-73
2021/10/09 00:43:41;;;;;;;12.88;6.25;;;;;;;5.42;52.41;101353.40;1623571;87;21067;-74
2021/10/09 00:46:16;;;;;;;13.55;6.10;;;;;;;5.39;52.48;101353.33;1595365;87;21172;-73
2021/10/09 00:48:50;;;;;;;12.70;6.42;;;;;;;5.39;52.51;101351.16;1592639;87;21543;-73
2021/10/09 00:51:21;;;;;;;9.08;5.42;;;;;;;5.36;52.32;101353.81;1614286;87;21128;-73
2021/10/09 00:53:51;;;;;;;12.20;6.33;;;;;;;5.36;52.41;101346.45;1594522;87;21031;-73
2021/10/09 00:56:22;;;;;;;12.28;5.83;;;;;;;5.38;52.55;101346.73;1584486;87;21170;-72
2021/10/09 00:58:53;;;;;;;16.30;6.42;;;;;;;5.36;52.53;101356.55;1615157;87;21616;-72
2021/10/09 01:01:30;;;;;;;11.05;6.05;;;;;;;5.36;52.88;101348.34;1617294;87;21045;-72
2021/10/09 01:04:00;;;;;;;16.50;6.25;;;;;;;5.35;52.98;101344.80;1585458;87;21621;-72
2021/10/09 01:06:41;;;;;;;15.65;6.67;;;;;;;5.34;52.76;101346.41;1618457;87;21027;-72
2021/10/09 01:09:13;;;;;;;15.00;6.58;;;;;;;5.33;52.73;101336.00;1619019;87;21076;-71
2021/10/09 01:11:45;;;;;;;14.18;5.83;;;;;;;5.31;52.85;101334.03;1591497;87;21093;-73
2021/10/09 01:14:16;;;;;;;13.60;5.97;;;;;;;5.31;52.86;101338.14;1618492;87;21012;-72
2021/10/09 01:16:46;;;;;;;15.35;7.33;;;;;;;5.30;52.87;101337.02;1595881;87;21049;-72
2021/10/09 01:19:14;;;;;;;16.60;6.37;;;;;;;5.29;53.02;101340.27;1626392;87;21053;-72
2021/10/09 01:21:49;;;;;;;19.57;6.85;;;;;;;5.28;52.91;101340.52;1611367;87;21076;-72
2021/10/09 01:24:22;;;;;;;14.85;6.22;;;;;;;5.29;52.96;101340.27;1614660;87;21059;-72
2021/10/09 01:26:54;;;;;;;13.83;6.12;;;;;;;5.28;52.90;101350.92;1615003;87;21551;-72
2021/10/09 01:29:30;;;;;;;14.25;6.10;;;;;;;5.29;53.43;101343.56;1596519;87;21051;-71
2021/10/09 01:32:01;;;;;;;22.22;7.00;;;;;;;5.28;53.37;101343.25;1621066;87;21083;-72
2021/10/09 01:34:31;;;;;;;16.20;7.10;;;;;;;5.28;53.42;101343.25;1618681;87;21101;-71
2021/10/09 01:37:12;;;;;;;17.15;6.92;;;;;;;5.26;53.24;101338.55;1592930;87;21131;-72
2021/10/09 01:39:45;;;;;;;15.90;6.50;;;;;;;5.22;52.79;101338.22;1609507;87;20992;-72
2021/10/09 01:42:16;;;;;;;13.65;6.42;;;;;;;5.19;53.04;101334.05;1619892;87;21037;-72
2021/10/09 01:44:47;;;;;;;18.05;7.67;;;;;;;5.17;53.19;101333.45;1615868;87;21139;-73
2021/10/09 01:47:30;;;;;;;19.27;7.50;;;;;;;5.18;53.26;101334.30;1618224;87;21025;-71
2021/10/09 01:50:00;;;;;;;26.00;7.58;;;;;;;5.15;53.29;101331.52;1613636;87;21114;-73
2021/10/09 01:52:32;;;;;;;17.92;7.55;;;;;;;5.14;53.78;101331.20;1618969;87;21084;-73
2021/10/09 01:55:05;;;;;;;20.85;7.05;;;;;;;5.11;54.08;101333.89;1614514;87;21063;-72
2021/10/09 01:57:32;;;;;;;17.62;6.87;;;;;;;5.08;54.31;101330.24;1589645;87;21068;-75
2021/10/09 02:00:01;;;;;;;20.43;7.92;;;;;;;5.06;54.74;101331.05;1608921;87;21052;-73
2021/10/09 02:02:33;;;;;;;23.00;6.85;;;;;;;5.04;54.77;101330.97;1614202;87;21152;-73
2021/10/09 02:05:01;;;;;;;17.35;7.60;;;;;;;5.01;54.80;101328.72;1594873;86;21117;-73
2021/10/09 02:07:31;;;;;;;20.08;7.47;;;;;;;4.98;54.63;101327.30;1619491;87;21062;-73
2021/10/09 02:10:03;;;;;;;22.20;7.35;;;;;;;4.95;54.57;101325.86;1602767;89;21092;-73
2021/10/09 02:12:34;;;;;;;17.52;7.62;;;;;;;4.94;54.51;101323.38;1613816;87;21034;-72
2021/10/09 02:25:49;;;;;;;25.60;7.47;;;;;;;4.93;54.40;101326.63;1563607;89;21035;-73
2021/10/09 02:28:23;;;;;;;21.23;8.08;;;;;;;4.93;54.36;101324.45;1606508;89;21081;-74
2021/10/09 02:30:59;;;;;;;18.05;6.80;;;;;;;4.91;54.35;101321.96;1617351;87;21131;-73
2021/10/09 02:33:35;;;;;;;21.75;7.42;;;;;;;4.91;54.32;101321.96;1615075;87;21150;-72
2021/10/09 02:36:04;;;;;;;33.65;9.03;;;;;;;4.91;54.25;101319.23;1586384;87;21080;-74
2021/10/09 02:38:37;;;;;;;20.95;8.13;;;;;;;4.92;54.25;101325.50;1615028;87;21031;-72
2021/10/09 02:41:13;;;;;;;19.32;8.00;;;;;;;4.91;54.22;101321.96;1599082;89;21004;-73
2021/10/09 02:43:40;;;;;;;20.02;7.70;;;;;;;4.91;54.13;101322.48;1577201;89;21110;-72
2021/10/09 02:46:13;;;;;;;19.30;7.80;;;;;;;4.91;54.16;101327.95;1603807;88;21009;-71
2021/10/09 02:48:42;;;;;;;26.15;7.47;;;;;;;4.89;54.22;101328.19;1617541;88;21595;-72
2021/10/09 02:51:11;;;;;;;22.87;8.03;;;;;;;4.89;54.27;101331.45;1610478;88;21141;-71
2021/10/09 02:53:48;;;;;;;23.55;8.65;;;;;;;4.88;54.32;101330.61;1585972;88;21086;-73
2021/10/09 02:56:16;;;;;;;19.35;7.83;;;;;;;4.86;54.32;101328.67;1613761;88;21041;-71
2021/10/09 02:58:49;;;;;;;15.63;8.43;;;;;;;4.84;54.31;101330.80;1596632;88;21139;-73
2021/10/09 03:01:20;;;;;;;18.95;7.17;;;;;;;4.81;54.34;101330.72;1610158;88;21040;-72
2021/10/09 03:03:56;;;;;;;18.57;7.90;;;;;;;4.80;54.29;101327.70;1606709;88;21121;-73
2021/10/09 03:06:28;;;;;;;;;;;;;;;4.78;54.27;101329.84;1608721;88;21073;-72
2021/10/09 03:09:02;;;;;;;14.63;7.65;;;;;;;4.74;54.42;101335.49;1559610;90;20169;-73
2021/10/09 03:11:32;;;;;;;19.48;7.85;;;;;;;4.71;54.51;101333.20;1561342;90;21037;-72
2021/10/09 03:14:06;;;;;;;19.35;7.95;;;;;;;4.67;54.50;101334.23;1566870;90;21647;-72
2021/10/09 03:16:35;;;;;;;30.55;8.68;;;;;;;4.65;54.51;101332.80;1565255;90;21030;-72
2021/10/09 03:19:05;;;;;;;20.35;7.65;;;;;;;4.62;54.65;101325.92;1581362;89;21168;-72
2021/10/09 03:21:42;;;;;;;18.67;8.23;;;;;;;4.58;54.68;101331.02;1592544;89;21571;-73
2021/10/09 03:24:15;;;;;;;21.52;8.83;;;;;;;4.56;54.69;101334.51;1596278;89;21070;-72
2021/10/09 03:26:45;;;;;;;20.37;8.43;;;;;;;4.53;54.72;101335.51;1553276;89;21092;-72
2021/10/09 03:29:17;;;;;;;15.70;7.85;;;;;;;4.50;54.75;101331.36;1594651;89;21056;-73
2021/10/09 03:31:47;;;;;;;18.35;8.03;;;;;;;4.46;54.88;101328.27;1574465;89;21488;-73
2021/10/09 03:34:22;;;;;;;24.15;8.63;;;;;;;4.42;55.03;101329.79;1595931;87;21574;-71
2021/10/09 03:36:54;;;;;;;14.60;7.42;;;;;;;4.37;55.09;101329.13;1586566;88;21116;-73
2021/10/09 03:39:24;;;;;;;19.35;7.67;;;;;;;4.34;55.31;101329.61;1593675;88;21126;-73
2021/10/09 03:42:12;;;;;;;18.00;7.35;;;;;;;4.29;55.43;101332.20;1607042;88;21521;-73
2021/10/09 03:44:47;;;;;;;16.20;7.95;;;;;;;4.25;55.81;101330.98;1600989;88;21148;-73
2021/10/09 03:47:20;;;;;;;18.37;7.75;;;;;;;4.20;55.76;101334.95;1602274;89;21029;-73
2021/10/09 03:49:55;;;;;;;18.62;8.33;;;;;;;4.17;55.83;101328.59;1599757;89;21072;-73
2021/10/09 03:52:38;;;;;;;16.95;8.50;;;;;;;4.12;55.92;101327.41;1608430;88;21507;-73
2021/10/09 03:55:13;;;;;;;16.70;8.20;;;;;;;4.10;56.02;101327.33;1605629;88;21124;-72
2021/10/09 03:57:49;;;;;;;17.77;8.65;;;;;;;4.06;56.14;101334.33;1611036;88;21173;-72
2021/10/09 04:00:21;;;;;;;17.98;8.53;;;;;;;4.03;56.52;101335.61;1609856;88;21533;-73
2021/10/09 04:02:58;;;;;;;19.90;8.83;;;;;;;3.99;56.69;101341.25;1608027;88;21112;-73
2021/10/09 04:05:27;;;;;;;19.98;8.58;;;;;;;3.96;56.57;101341.71;1610506;86;21112;-72
2021/10/09 04:07:58;;;;;;;19.45;8.85;;;;;;;3.94;56.58;101340.55;1613180;88;21560;-72
2021/10/09 04:10:35;;;;;;;24.92;9.00;;;;;;;3.91;56.70;101342.93;1595502;89;21561;-72
2021/10/09 04:13:08;;;;;;;22.25;8.53;;;;;;;3.88;56.68;101343.69;1598740;89;21122;-72
2021/10/09 04:15:39;;;;;;;22.10;8.93;;;;;;;3.87;56.72;101343.92;1612911;88;21067;-73
2021/10/09 04:18:14;;;;;;;21.48;8.68;;;;;;;3.85;56.74;101340.06;1611205;88;21042;-73
2021/10/09 04:20:42;;;;;;;20.85;8.83;;;;;;;3.85;56.77;101344.16;1612176;88;21087;-71
2021/10/09 04:23:20;;;;;;;19.50;8.98;;;;;;;3.83;56.82;101350.36;1608368;88;21269;-72
2021/10/09 04:25:52;;;;;;;20.55;9.43;;;;;;;3.83;56.83;101354.45;1607910;88;21085;-71
2021/10/09 04:28:27;;;;;;;21.27;9.60;;;;;;;3.82;56.79;101354.12;1610766;88;21060;-72
2021/10/09 04:31:03;;;;;;;23.35;7.62;;;;;;;3.83;56.84;101363.16;1614433;88;21028;-72
2021/10/09 04:33:32;;;;;;;20.27;8.50;;;;;;;3.82;56.88;101362.31;1582547;88;21021;-72
2021/10/09 04:36:08;;;;;;;21.90;9.10;;;;;;;3.83;56.88;101366.72;1614157;88;22016;-73
2021/10/09 04:38:42;;;;;;;20.82;8.30;;;;;;;3.84;56.92;101364.28;1613085;88;21113;-72
2021/10/09 04:41:12;;;;;;;24.95;8.65;;;;;;;3.82;56.92;101367.77;1614590;88;21044;-71
2021/10/09 04:43:47;;;;;;;23.70;8.43;;;;;;;3.84;56.91;101370.30;1616208;88;21579;-73
2021/10/09 04:46:20;;;;;;;14.83;7.92;;;;;;;3.86;56.99;101363.53;1608261;88;21540;-72
2021/10/09 04:48:53;;;;;;;33.18;9.03;;;;;;;3.88;56.97;101365.51;1612875;88;21053;-73
2021/10/09 04:51:24;;;;;;;23.62;8.75;;;;;;;3.92;57.10;101358.22;1615761;88;21056;-71
2021/10/09 04:53:55;;;;;;;22.82;8.50;;;;;;;3.96;57.03;101367.62;1588226;88;21060;-72
2021/10/09 04:56:27;;;;;;;21.00;9.30;;;;;;;3.98;56.67;101366.84;1616676;88;21034;-72
2021/10/09 04:59:02;;;;;;;33.50;10.05;;;;;;;3.98;56.77;101363.59;1591059;88;21541;-73
2021/10/09 05:01:35;;;;;;;24.05;8.00;;;;;;;4.04;56.79;101370.55;1614585;88;21081;-72
2021/10/09 05:04:05;;;;;;;21.80;8.55;;;;;;;4.09;56.68;101371.54;1614977;88;21027;-72
2021/10/09 05:06:39;;;;;;;26.02;8.68;;;;;;;4.15;56.62;101376.58;1612633;86;21020;-72
2021/10/09 05:09:09;;;;;;;23.75;8.60;;;;;;;4.20;56.56;101373.99;1611505;88;21538;-73
2021/10/09 05:11:38;;;;;;;22.13;8.08;;;;;;;4.26;56.42;101374.42;1593585;88;21622;-72
2021/10/09 05:14:07;;;;;;;21.52;8.78;;;;;;;4.32;56.27;101374.56;1602403;88;21069;-72
2021/10/09 05:16:47;;;;;;;27.95;12.05;;;;;;;4.36;56.09;101370.31;1610608;88;21546;-71
2021/10/09 05:21:56;;;;;;;70.47;25.25;;;;;;;4.40;55.72;101367.43;1610597;88;21008;-72
2021/10/09 05:24:26;;;;;;;51.33;20.12;;;;;;;4.41;55.81;101366.88;1588348;88;21072;-72
2021/10/09 05:26:55;;;;;;;45.15;15.85;;;;;;;4.44;55.78;101365.04;1614232;88;21717;-70
2021/10/09 05:29:30;;;;;;;40.48;17.77;;;;;;;4.47;55.70;101368.69;1593316;88;21144;-72
2021/10/09 05:32:05;;;;;;;40.08;17.48;;;;;;;4.48;55.30;101374.44;1611917;88;21097;-72
2021/10/09 05:34:43;;;;;;;32.70;14.28;;;;;;;4.48;55.46;101371.19;1610112;88;21111;-73
2021/10/09 05:37:20;;;;;;;21.45;10.58;;;;;;;4.50;55.35;101371.77;1618412;88;21599;-71
2021/10/09 05:39:51;;;;;;;38.25;10.88;;;;;;;4.54;55.34;101373.49;1582925;88;21154;-72
2021/10/09 05:42:22;;;;;;;20.45;10.23;;;;;;;4.57;55.32;101368.92;1615959;88;21135;-71
2021/10/09 05:44:51;;;;;;;21.90;9.88;;;;;;;4.61;54.88;101367.41;1618266;88;21056;-72
2021/10/09 05:47:24;;;;;;;17.87;8.20;;;;;;;4.63;54.93;101373.47;1613271;88;21062;-71
2021/10/09 05:49:58;;;;;;;19.82;8.40;;;;;;;4.71;54.98;101370.08;1614676;88;21065;-72
2021/10/09 05:52:38;;;;;;;22.32;8.13;;;;;;;4.78;54.82;101364.53;1612065;88;21556;-72
2021/10/09 05:55:13;;;;;;;19.12;9.15;;;;;;;4.86;54.75;101367.72;1601996;88;21042;-72
2021/10/09 05:57:55;;;;;;;27.10;9.85;;;;;;;4.96;54.65;101370.42;1610918;88;21033;-71
2021/10/09 06:31:30;;;;;;;22.50;7.92;;;;;;;5.95;52.17;101396.60;1609652;87;21084;-73
2021/10/09 06:45:04;;;;;;;17.12;8.18;;;;;;;6.29;50.90;101404.68;1567244;88;21087;-72
2021/10/09 06:47:47;;;;;;;24.95;8.00;;;;;;;6.36;51.01;101405.38;1578798;89;21065;-74
2021/10/09 06:50:33;;;;;;;35.55;9.05;;;;;;;6.47;50.90;101407.74;1613258;87;21045;-73
2021/10/09 07:01:29;;;;;;;24.20;8.60;;;;;;;6.91;49.83;101398.89;1616757;87;21310;-73
2021/10/09 07:03:58;;;;;;;21.45;8.03;;;;;;;7.04;49.66;101404.60;1621332;87;21086;-72
2021/10/09 07:06:31;;;;;;;19.73;8.10;;;;;;;7.14;49.42;101409.41;1614181;86;21041;-71
2021/10/09 07:09:05;;;;;;;18.75;6.83;;;;;;;7.24;49.38;101406.52;1590850;87;21522;-71
2021/10/09 07:11:39;;;;;;;19.77;6.00;;;;;;;7.34;48.77;101401.19;1612030;87;21032;-72
2021/10/09 07:14:11;;;;;;;21.02;6.37;;;;;;;7.44;48.16;101410.09;1617185;87;21099;-71
2021/10/09 07:16:41;;;;;;;21.60;7.53;;;;;;;7.49;47.30;101403.31;1620569;87;21228;-71
2021/10/09 07:19:14;;;;;;;21.15;7.72;;;;;;;7.57;47.39;101403.97;1587638;87;21083;-71
2021/10/09 07:21:45;;;;;;;;;;;;;;;7.66;47.24;101405.17;1616168;87;21083;-72
2021/10/09 07:24:17;;;;;;;15.10;6.70;;;;;;;7.75;46.93;101406.94;1616353;87;20171;-72
2021/10/09 07:26:50;;;;;;;16.00;5.55;;;;;;;7.81;46.64;101403.73;1594398;87;21130;-74
2021/10/09 07:29:17;;;;;;;12.70;6.90;;;;;;;7.89;46.56;101404.11;1620626;87;21134;-73
2021/10/09 07:31:44;;;;;;;21.15;6.47;;;;;;;7.99;46.36;101403.94;1590680;87;21063;-74
2021/10/09 07:34:14;;;;;;;16.15;6.75;;;;;;;8.09;45.76;101405.97;1616538;87;21030;-73
2021/10/09 07:36:47;;;;;;;26.57;6.58;;;;;;;8.15;45.27;101403.58;1625168;87;21096;-72
2021/10/09 07:39:16;;;;;;;14.87;6.03;;;;;;;8.22;45.13;101401.44;1620371;87;22166;-71
2021/10/09 07:41:51;;;;;;;20.12;6.20;;;;;;;8.30;44.42;101401.54;1616179;87;21569;-72
2021/10/09 07:44:21;;;;;;;32.35;6.40;;;;;;;8.36;44.26;101396.94;1615930;87;21060;-72
2021/10/09 07:46:49;;;;;;;18.17;6.05;;;;;;;8.44;43.92;101403.88;1617648;87;21132;-73
2021/10/09 07:49:19;;;;;;;22.93;6.20;;;;;;;8.52;43.90;101401.49;1592737;87;21175;-73
2021/10/09 07:51:50;;;;;;;25.27;6.22;;;;;;;8.60;43.54;101400.74;1620228;87;21639;-73
2021/10/09 07:54:26;;;;;;;21.33;5.85;;;;;;;8.68;43.00;101403.04;1592242;87;21126;-73
2021/10/09 07:56:54;;;;;;;20.32;6.58;;;;;;;8.75;43.00;101402.26;1594083;87;21646;-71
2021/10/09 07:59:43;;;;;;;16.23;4.90;;;;;;;8.84;42.92;101401.77;1619785;87;21025;-73
2021/10/09 08:02:15;;;;;;;16.70;4.90;;;;;;;8.92;42.47;101406.81;1619730;87;21081;-72
2021/10/09 08:04:47;;;;;;;18.35;5.25;;;;;;;8.99;42.05;101401.90;1591190;87;21025;-72
2021/10/09 08:07:22;;;;;;;30.30;6.30;;;;;;;9.06;42.01;101395.37;1621748;86;21086;-73
2021/10/09 08:09:52;;;;;;;12.53;5.00;;;;;;;9.15;41.93;101403.93;1594739;87;21068;-72
2021/10/09 08:12:31;;;;;;;16.65;4.92;;;;;;;9.23;41.41;101400.14;1592140;87;21115;-71
2021/10/09 08:15:02;;;;;;;10.80;4.22;;;;;;;9.29;40.72;101397.43;1620975;87;21072;-71
2021/10/09 08:17:36;;;;;;;17.50;5.47;;;;;;;9.33;41.03;101392.50;1619687;87;21037;-69
2021/10/09 08:20:13;;;;;;;13.50;4.72;;;;;;;9.43;41.32;101393.13;1613017;87;21117;-72
2021/10/09 08:22:55;;;;;;;16.42;4.30;;;;;;;9.52;40.86;101400.88;1618094;87;21045;-73
2021/10/09 08:39:10;;;;;;;7.65;3.70;;;;;;;10.15;40.44;101384.86;1615659;87;21109;-71
2021/10/09 08:41:50;;;;;;;7.30;3.35;;;;;;;10.27;40.03;101390.13;1618420;87;21078;-73
2021/10/09 08:44:26;;;;;;;8.98;3.37;;;;;;;10.36;39.54;101390.42;1617201;87;21243;-73
2021/10/09 08:47:08;;;;;;;7.75;3.50;;;;;;;10.47;39.31;101383.03;1614790;87;21118;-73
2021/10/09 08:49:39;;;;;;;12.47;3.45;;;;;;;10.57;38.46;101384.97;1621765;87;21667;-72
2021/10/09 08:52:08;;;;;;;19.80;4.47;;;;;;;10.61;37.80;101385.25;1620165;87;21055;-71
2021/10/09 08:54:40;;;;;;;18.87;4.10;;;;;;;10.63;37.54;101385.23;1612578;87;21047;-73
2021/10/09 08:57:15;;;;;;;10.18;3.47;;;;;;;10.66;37.06;101387.44;1585189;87;21159;-73
2021/10/09 09:00:16;;;;;;;11.28;3.55;;;;;;;10.73;36.78;101386.36;1603743;87;21028;-72
2021/10/09 09:02:34;;;;;;;9.98;2.52;;;;;;;10.78;36.20;101386.36;1597497;89;21123;-72
2021/10/09 09:05:23;;;;;;;12.30;2.80;;;;;;;10.82;36.18;101381.39;1604872;88;21043;-71
2021/10/09 09:08:17;;;;;;;3.85;2.40;;;;;;;10.91;36.47;101380.83;1600329;89;21036;-73
2021/10/09 09:25:31;;;;;;;8.38;2.67;;;;;;;11.45;34.54;101377.14;1581386;87;21030;-71
2021/10/09 09:30:26;;;;;;;12.50;2.40;;;;;;;11.53;33.59;101371.61;1591374;87;21611;-73
2021/10/09 09:31:05;;;;;;;12.28;2.67;;;;;;;11.59;32.62;101367.71;1605300;87;21504;-72
2021/10/09 09:41:28;;;;;;;21.33;3.33;;;;;;;11.90;32.86;101356.53;1556039;91;21162;-72
2021/10/09 09:43:59;;;;;;;8.48;2.30;;;;;;;12.01;32.21;101363.39;1582745;89;21387;-73
2021/10/09 09:46:32;;;;;;;11.43;2.35;;;;;;;12.08;31.93;101358.36;1571618;89;21045;-72
2021/10/09 09:49:06;;;;;;;6.80;2.72;;;;;;;12.17;31.99;101360.00;1569459;89;21103;-72
2021/10/09 09:51:39;;;;;;;11.88;2.45;;;;;;;12.26;32.01;101363.82;1587745;89;21058;-71
2021/10/09 09:54:25;;;;;;;8.40;2.50;;;;;;;12.32;31.48;101357.69;1582707;89;21059;-72
2021/10/09 09:57:00;;;;;;;7.03;2.17;;;;;;;12.37;31.32;101356.27;1578563;90;21051;-73
2021/10/09 09:59:38;;;;;;;9.20;2.65;;;;;;;12.41;31.41;101351.83;1546026;90;21648;-72
2021/10/09 10:02:06;;;;;;;10.60;2.90;;;;;;;12.49;31.46;101344.84;1553612;90;21037;-71
2021/10/09 10:04:41;;;;;;;13.90;2.45;;;;;;;12.57;31.71;101337.89;1566280;89;21161;-73
2021/10/09 10:07:11;;;;;;;8.50;2.08;;;;;;;12.66;31.14;101347.20;1571516;89;21131;-71
2021/10/09 10:09:43;;;;;;;6.85;2.00;;;;;;;12.72;30.96;101343.84;1574031;89;21052;-71
2021/10/09 10:12:25;;;;;;;5.45;2.05;;;;;;;12.77;30.73;101341.03;1570301;89;21048;-71
2021/10/09 10:14:58;;;;;;;4.80;2.27;;;;;;;12.85;31.03;101338.17;1549792;90;21139;-71
2021/10/09 10:17:45;;;;;;;5.00;2.67;;;;;;;12.95;30.91;101338.63;1539484;91;21103;-73
2021/10/09 10:20:19;;;;;;;11.43;2.50;;;;;;;13.01;30.72;101334.72;1573827;89;21079;-73
2021/10/09 10:22:55;;;;;;;5.08;2.35;;;;;;;13.09;30.95;101333.78;1573911;89;21127;-72
2021/10/09 10:25:34;;;;;;;5.53;2.37;;;;;;;13.15;30.88;101340.36;1573653;89;21121;-71
2021/10/09 10:28:18;;;;;;;26.87;3.20;;;;;;;13.22;30.68;101339.20;1601149;86;21621;-71
2021/10/09 10:30:45;;;;;;;5.55;1.98;;;;;;;13.25;30.24;101328.92;1593744;88;21120;-72
2021/10/09 10:33:23;;;;;;;9.53;2.17;;;;;;;13.28;29.99;101326.95;1609089;87;21620;-73
2021/10/09 10:35:52;;;;;;;6.37;1.62;;;;;;;13.29;29.79;101327.78;1585662;88;21056;-74
2021/10/09 10:38:41;;;;;;;6.20;2.17;;;;;;;13.25;29.75;101328.37;1563602;90;21065;-73
2021/10/09 10:41:06;;;;;;;22.33;2.77;;;;;;;13.23;29.60;101328.39;1567822;90;21042;-72
2021/10/09 10:46:39;;;;;;;10.45;1.87;;;;;;;13.15;29.87;101330.67;1624456;87;21084;-67
2021/10/09 10:49:29;;;;;;;36.58;3.30;;;;;;;13.09;29.22;101323.55;1631103;87;21092;-69
2021/10/09 10:51:55;;;;;;;4.83;2.20;;;;;;;13.03;29.60;101319.20;1622409;87;21581;-70
2021/10/09 10:57:14;;;;;;;6.15;2.58;;;;;;;12.96;29.73;101321.48;1619639;87;21148;-70
2021/10/09 11:02:39;;;;;;;30.85;12.82;;;;;;;13.10;29.65;101313.32;1588931;88;21615;-72
2021/10/09 11:05:12;;;;;;;18.75;7.65;;;;;;;13.34;29.49;101313.30;1614341;87;21049;-72
2021/10/09 11:07:48;;;;;;;12.58;3.35;;;;;;;13.63;28.66;101312.42;1608916;87;21115;-73
2021/10/09 11:10:22;;;;;;;14.47;8.50;;;;;;;13.85;29.03;101313.78;1584968;87;21157;-71
2021/10/09 11:12:51;;;;;;;182.55;114.57;;;;;;;14.03;28.69;101312.71;1600489;88;21632;-68
2021/10/09 11:15:23;;;;;;;130.60;85.03;;;;;;;14.08;28.40;101310.42;1582655;89;21368;-69
2021/10/09 11:18:00;;;;;;;40.52;19.65;;;;;;;14.11;28.59;101306.48;1580684;89;21113;-70
2021/10/09 11:20:36;;;;;;;17.87;11.50;;;;;;;14.19;27.99;101308.32;1585047;89;21097;-69
2021/10/09 11:25:53;;;;;;;32.78;11.28;;;;;;;14.36;27.73;101302.23;1610959;87;21126;-74
2021/10/09 11:28:33;;;;;;;36.90;18.27;;;;;;;14.46;27.65;101294.30;1587074;88;21579;-69
2021/10/09 11:30:56;;;;;;;22.53;15.20;;;;;;;14.59;27.55;101294.07;1562709;90;21004;-71
2021/10/09 11:33:29;;;;;;;94.07;50.78;;;;;;;14.69;27.33;101299.44;1548212;91;21093;-71
2021/10/09 11:36:03;;;;;;;23.83;14.23;;;;;;;14.78;27.47;101296.79;1567870;91;21779;-73
2021/10/09 11:38:33;;;;;;;9.90;6.42;;;;;;;14.86;27.16;101301.41;1579982;90;21077;-66
2021/10/09 11:41:15;;;;;;;81.80;7.75;;;;;;;14.95;27.27;101288.45;1588306;88;21202;-71
2021/10/09 11:43:53;;;;;;;42.30;25.08;;;;;;;15.06;27.30;101294.06;1609330;88;21533;-73
2021/10/09 11:55:27;;;;;;;84.52;32.40;;;;;;;15.20;25.67;101283.52;1610174;88;21586;-73
2021/10/09 11:57:58;;;;;;;21.42;7.58;;;;;;;14.96;25.98;101285.38;1608312;88;21056;-73
2021/10/09 12:00:37;;;;;;;7.20;2.58;;;;;;;14.87;26.34;101285.84;1592621;87;21159;-69
2021/10/09 12:03:29;;;;;;;20.37;3.60;;;;;;;14.88;26.12;101278.31;1616215;87;21096;-66
2021/10/09 12:06:01;;;;;;;4.30;2.52;;;;;;;14.96;27.06;101267.92;1599760;87;21107;-70
2021/10/09 12:08:32;;;;;;;;;;;;;;;15.02;26.66;101269.45;1614168;88;21045;-71
2021/10/09 12:11:22;;;;;;;14.30;2.35;;;;;;;15.02;26.40;101276.39;1617574;88;20168;-70
2021/10/09 12:14:00;;;;;;;8.78;2.10;;;;;;;15.00;26.30;101256.44;1583061;90;21521;-71
2021/10/09 12:16:48;;;;;;;6.25;1.72;;;;;;;14.99;26.11;101257.59;1585529;89;21385;-72
2021/10/09 12:19:30;;;;;;;20.82;4.17;;;;;;;14.98;26.08;101262.86;1609709;88;21139;-71
2021/10/09 12:22:06;;;;;;;10.70;5.30;;;;;;;14.98;26.43;101263.45;1614973;88;21024;-72
2021/10/09 12:24:47;;;;;;;36.38;18.85;;;;;;;14.95;25.74;101257.93;1607415;88;21104;-69
2021/10/09 12:27:20;;;;;;;26.30;11.53;;;;;;;14.89;26.07;101255.01;1613977;88;21056;-71
2021/10/09 12:30:04;;;;;;;11.73;5.33;;;;;;;14.90;26.18;101251.92;1615718;88;21165;-71
2021/10/09 12:32:45;;;;;;;12.47;3.20;;;;;;;14.92;26.35;101255.78;1621181;88;21602;-72
2021/10/09 12:35:21;;;;;;;13.93;3.50;;;;;;;14.95;26.27;101256.55;1620147;88;21072;-69
2021/10/09 12:38:10;;;;;;;12.05;2.67;;;;;;;14.94;26.15;101251.55;1623553;86;21096;-72
2021/10/09 12:40:51;;;;;;;19.17;2.67;;;;;;;14.93;26.41;101251.30;1589986;89;21513;-73
2021/10/09 12:43:44;;;;;;;9.43;2.45;;;;;;;14.92;26.32;101252.45;1579928;90;21741;-72
2021/10/09 12:46:14;;;;;;;11.30;2.70;;;;;;;14.92;26.66;101249.67;1580594;90;21067;-74
2021/10/09 12:48:41;;;;;;;6.25;2.65;;;;;;;14.93;26.17;101250.47;1582937;90;21587;-70
2021/10/09 12:51:23;;;;;;;6.25;2.70;;;;;;;14.90;26.29;101242.77;1595560;88;21430;-66
2021/10/09 12:53:53;;;;;;;6.10;2.52;;;;;;;14.90;26.09;101244.16;1585885;90;21059;-68
2021/10/09 12:56:20;;;;;;;12.50;2.80;;;;;;;14.84;26.41;101242.86;1586293;90;21159;-72
2021/10/09 12:58:56;;;;;;;12.82;2.60;;;;;;;14.87;26.90;101242.83;1579908;90;21480;-70
2021/10/09 13:01:24;;;;;;;17.35;4.90;;;;;;;14.92;26.78;101239.12;1581581;90;21075;-71
2021/10/09 13:03:51;;;;;;;42.27;17.52;;;;;;;14.96;26.66;101241.55;1581017;90;21219;-74
2021/10/09 13:06:18;;;;;;;10.70;4.78;;;;;;;14.98;26.25;101237.88;1563901;89;21372;-77
2021/10/09 13:08:51;;;;;;;13.03;8.35;;;;;;;14.97;26.18;101233.48;1581607;90;21069;-72
2021/10/09 13:11:28;;;;;;;31.20;17.02;;;;;;;14.98;26.02;101230.94;1587069;90;21027;-71
2021/10/09 13:13:53;;;;;;;81.57;49.45;;;;;;;14.95;25.75;101229.63;1565102;88;21100;-71
2021/10/09 13:16:23;;;;;;;25.08;13.65;;;;;;;14.89;25.74;101230.87;1588443;88;21071;-69
2021/10/09 13:18:55;;;;;;;14.65;6.45;;;;;;;14.84;25.73;101228.99;1583113;88;21044;-72
2021/10/09 13:21:23;;;;;;;50.58;23.87;;;;;;;14.81;25.67;101234.33;1576015;90;21813;-71
2021/10/09 13:24:06;;;;;;;235.08;134.20;;;;;;;14.80;25.92;101230.75;1581267;90;21716;-75
2021/10/09 13:26:34;;;;;;;84.05;52.65;;;;;;;14.77;25.95;101229.13;1579159;90;21107;-70
2021/10/09 13:29:03;;;;;;;55.15;30.45;;;;;;;14.73;25.67;101225.58;1581630;90;21078;-71
2021/10/09 13:31:35;;;;;;;22.37;9.35;;;;;;;14.69;25.82;101218.98;1587342;90;21047;-73
2021/10/09 13:34:08;;;;;;;9.43;4.87;;;;;;;14.65;25.87;101222.69;1578842;90;21137;-75
2021/10/09 13:36:47;;;;;;;58.90;26.62;;;;;;;14.60;25.56;101224.42;1578639;90;21074;-70
2021/10/09 13:39:14;;;;;;;17.90;6.10;;;;;;;14.57;25.65;101226.98;1569065;90;21135;-69
2021/10/09 13:41:44;;;;;;;45.73;13.28;;;;;;;14.54;26.29;101225.65;1565476;90;21124;-71
2021/10/09 13:44:18;;;;;;;20.80;6.05;;;;;;;14.57;26.23;101228.36;1582292;90;21063;-73
2021/10/09 13:47:00;;;;;;;40.63;11.33;;;;;;;14.59;26.34;101221.40;1582484;88;21057;-72
2021/10/09 13:49:50;;;;;;;40.55;7.12;;;;;;;14.66;26.54;101221.55;1582768;90;21405;-71
2021/10/09 13:55:55;;;;;;;11.80;3.12;;;;;;;14.65;26.40;101219.36;1583340;90;21075;-73